sensor_id;sensor_type;location;lat;lon;timestamp;P1;durP1;ratioP1;P2;durP2;ratioP2
75608;SDS011;64194;51.044;13.780;2022-12-18T00:03:33;39.83;;;16.65;;
75608;SDS011;64194;51.044;13.780;2022-12-18T00:07:35;44.30;;;17.40;;
75608;SDS011;64194;51.044;13.780;2022-12-18T00:11:36;48.17;;;18.88;;
75608;SDS011;64194;51.044;13.780;2022-12-18T00:15:38;43.22;;;16.13;;
75608;SDS011;64194;51.044;13.780;2022-12-18T00:19:41;43.05;;;16.67;;
75608;SDS011;64194;51.044;13.780;2022-12-18T00:23:43;39.78;;;16.80;;
75608;SDS011;64194;51.044;13.780;2022-12-18T00:27:45;40.63;;;16.23;;
75608;SDS011;64194;51.044;13.780;2022-12-18T00:31:47;37.63;;;16.10;;
75608;SDS011;64194;51.044;13.780;2022-12-18T00:35:49;39.75;;;15.18;;
75608;SDS011;64194;51.044;13.780;2022-12-18T00:39:50;34.42;;;14.15;;
75608;SDS011;64194;51.044;13.780;2022-12-18T00:43:53;36.38;;;14.57;;
75608;SDS011;64194;51.044;13.780;2022-12-18T00:47:55;39.80;;;16.00;;
75608;SDS011;64194;51.044;13.780;2022-12-18T00:51:57;31.65;;;12.85;;
75608;SDS011;64194;51.044;13.780;2022-12-18T00:55:58;33.08;;;12.38;;
75608;SDS011;64194;51.044;13.780;2022-12-18T01:00:00;35.75;;;15.70;;
75608;SDS011;64194;51.044;13.780;2022-12-18T01:04:03;36.90;;;16.05;;
75608;SDS011;64194;51.044;13.780;2022-12-18T01:08:04;40.15;;;14.13;;
75608;SDS011;64194;51.044;13.780;2022-12-18T01:12:06;30.48;;;12.68;;
75608;SDS011;64194;51.044;13.780;2022-12-18T01:16:08;28.23;;;13.10;;
75608;SDS011;64194;51.044;13.780;2022-12-18T01:20:11;27.20;;;11.40;;
75608;SDS011;64194;51.044;13.780;2022-12-18T01:24:13;31.42;;;11.73;;
75608;SDS011;64194;51.044;13.780;2022-12-18T01:28:15;28.20;;;11.05;;
75608;SDS011;64194;51.044;13.780;2022-12-18T01:32:17;21.92;;;9.13;;
75608;SDS011;64194;51.044;13.780;2022-12-18T01:36:20;22.40;;;9.18;;
75608;SDS011;64194;51.044;13.780;2022-12-18T01:40:24;23.95;;;10.02;;
75608;SDS011;64194;51.044;13.780;2022-12-18T01:49:05;24.45;;;12.00;;
75608;SDS011;64194;51.044;13.780;2022-12-18T01:53:11;27.73;;;10.85;;
75608;SDS011;64194;51.044;13.780;2022-12-18T01:57:16;32.08;;;12.40;;
75608;SDS011;64194;51.044;13.780;2022-12-18T02:01:17;23.17;;;9.93;;
75608;SDS011;64194;51.044;13.780;2022-12-18T02:05:32;25.02;;;9.77;;
75608;SDS011;64194;51.044;13.780;2022-12-18T02:09:41;21.90;;;9.38;;
75608;SDS011;64194;51.044;13.780;2022-12-18T02:18:19;17.35;;;8.02;;
75608;SDS011;64194;51.044;13.780;2022-12-18T02:22:44;19.05;;;7.32;;
75608;SDS011;64194;51.044;13.780;2022-12-18T02:26:56;22.45;;;8.13;;
75608;SDS011;64194;51.044;13.780;2022-12-18T02:31:04;20.48;;;9.40;;
75608;SDS011;64194;51.044;13.780;2022-12-18T02:35:13;22.92;;;8.57;;
75608;SDS011;64194;51.044;13.780;2022-12-18T02:39:18;21.02;;;8.00;;
75608;SDS011;64194;51.044;13.780;2022-12-18T02:43:32;22.88;;;9.20;;
75608;SDS011;64194;51.044;13.780;2022-12-18T02:47:36;18.98;;;9.27;;
75608;SDS011;64194;51.044;13.780;2022-12-18T02:51:52;21.67;;;7.60;;
75608;SDS011;64194;51.044;13.780;2022-12-18T02:56:12;15.05;;;7.05;;
75608;SDS011;64194;51.044;13.780;2022-12-18T03:00:29;14.00;;;6.10;;
75608;SDS011;64194;51.044;13.780;2022-12-18T03:05:27;25.25;;;8.27;;
75608;SDS011;64194;51.044;13.780;2022-12-18T03:09:33;21.35;;;8.65;;
75608;SDS011;64194;51.044;13.780;2022-12-18T03:13:47;19.15;;;7.65;;
75608;SDS011;64194;51.044;13.780;2022-12-18T03:17:54;22.20;;;7.97;;
75608;SDS011;64194;51.044;13.780;2022-12-18T03:22:03;16.75;;;7.20;;
75608;SDS011;64194;51.044;13.780;2022-12-18T03:26:17;16.75;;;6.40;;
75608;SDS011;64194;51.044;13.780;2022-12-18T03:30:26;15.02;;;6.97;;
75608;SDS011;64194;51.044;13.780;2022-12-18T03:34:33;17.83;;;6.40;;
75608;SDS011;64194;51.044;13.780;2022-12-18T03:38:40;18.40;;;6.95;;
75608;SDS011;64194;51.044;13.780;2022-12-18T03:42:55;15.77;;;7.30;;
75608;SDS011;64194;51.044;13.780;2022-12-18T03:51:42;12.73;;;5.63;;
75608;SDS011;64194;51.044;13.780;2022-12-18T03:55:52;16.45;;;6.55;;
75608;SDS011;64194;51.044;13.780;2022-12-18T03:59:56;18.05;;;5.90;;
75608;SDS011;64194;51.044;13.780;2022-12-18T04:04:14;16.05;;;6.28;;
75608;SDS011;64194;51.044;13.780;2022-12-18T04:08:18;10.55;;;4.07;;
75608;SDS011;64194;51.044;13.780;2022-12-18T04:12:30;16.05;;;5.82;;
75608;SDS011;64194;51.044;13.780;2022-12-18T04:16:31;14.50;;;5.65;;
75608;SDS011;64194;51.044;13.780;2022-12-18T04:20:36;12.68;;;5.65;;
75608;SDS011;64194;51.044;13.780;2022-12-18T04:24:38;12.55;;;5.70;;
75608;SDS011;64194;51.044;13.780;2022-12-18T04:28:50;9.60;;;4.38;;
75608;SDS011;64194;51.044;13.780;2022-12-18T04:32:52;13.48;;;5.45;;
75608;SDS011;64194;51.044;13.780;2022-12-18T04:36:55;15.52;;;5.93;;
75608;SDS011;64194;51.044;13.780;2022-12-18T04:40:57;14.18;;;4.97;;
75608;SDS011;64194;51.044;13.780;2022-12-18T04:45:01;13.80;;;5.75;;
75608;SDS011;64194;51.044;13.780;2022-12-18T04:49:02;11.82;;;5.07;;
75608;SDS011;64194;51.044;13.780;2022-12-18T04:53:04;14.55;;;4.85;;
75608;SDS011;64194;51.044;13.780;2022-12-18T04:57:06;14.77;;;5.68;;
75608;SDS011;64194;51.044;13.780;2022-12-18T05:01:08;15.45;;;6.57;;
75608;SDS011;64194;51.044;13.780;2022-12-18T05:05:10;14.45;;;5.15;;
75608;SDS011;64194;51.044;13.780;2022-12-18T05:09:11;14.10;;;5.45;;
75608;SDS011;64194;51.044;13.780;2022-12-18T05:13:13;14.90;;;6.18;;
75608;SDS011;64194;51.044;13.780;2022-12-18T05:17:15;10.38;;;4.55;;
75608;SDS011;64194;51.044;13.780;2022-12-18T05:21:16;12.98;;;4.97;;
75608;SDS011;64194;51.044;13.780;2022-12-18T05:25:18;14.10;;;6.05;;
75608;SDS011;64194;51.044;13.780;2022-12-18T05:29:21;10.95;;;4.32;;
75608;SDS011;64194;51.044;13.780;2022-12-18T05:33:23;13.00;;;5.43;;
75608;SDS011;64194;51.044;13.780;2022-12-18T05:37:27;10.77;;;4.82;;
75608;SDS011;64194;51.044;13.780;2022-12-18T05:41:29;14.52;;;4.75;;
75608;SDS011;64194;51.044;13.780;2022-12-18T05:45:30;10.32;;;4.10;;
75608;SDS011;64194;51.044;13.780;2022-12-18T05:49:32;13.05;;;4.38;;
75608;SDS011;64194;51.044;13.780;2022-12-18T05:53:33;12.57;;;5.10;;
75608;SDS011;64194;51.044;13.780;2022-12-18T05:57:36;10.20;;;3.78;;
75608;SDS011;64194;51.044;13.780;2022-12-18T06:01:37;10.10;;;4.43;;
75608;SDS011;64194;51.044;13.780;2022-12-18T06:05:41;11.48;;;3.50;;
75608;SDS011;64194;51.044;13.780;2022-12-18T06:09:44;15.52;;;5.22;;
75608;SDS011;64194;51.044;13.780;2022-12-18T06:13:46;11.55;;;4.68;;
75608;SDS011;64194;51.044;13.780;2022-12-18T06:17:56;11.60;;;4.18;;
75608;SDS011;64194;51.044;13.780;2022-12-18T06:21:58;11.25;;;4.93;;
75608;SDS011;64194;51.044;13.780;2022-12-18T06:26:03;11.68;;;4.45;;
75608;SDS011;64194;51.044;13.780;2022-12-18T06:30:11;9.77;;;3.92;;
75608;SDS011;64194;51.044;13.780;2022-12-18T06:34:14;10.18;;;4.18;;
75608;SDS011;64194;51.044;13.780;2022-12-18T06:38:16;14.00;;;5.68;;
75608;SDS011;64194;51.044;13.780;2022-12-18T06:42:17;12.98;;;3.58;;
75608;SDS011;64194;51.044;13.780;2022-12-18T06:46:19;15.70;;;4.40;;
75608;SDS011;64194;51.044;13.780;2022-12-18T06:50:20;11.05;;;4.70;;
75608;SDS011;64194;51.044;13.780;2022-12-18T06:54:22;12.50;;;6.00;;
75608;SDS011;64194;51.044;13.780;2022-12-18T06:58:24;11.60;;;4.75;;
75608;SDS011;64194;51.044;13.780;2022-12-18T07:02:25;17.05;;;6.15;;
75608;SDS011;64194;51.044;13.780;2022-12-18T07:06:27;15.77;;;6.15;;
75608;SDS011;64194;51.044;13.780;2022-12-18T07:10:29;13.00;;;5.03;;
75608;SDS011;64194;51.044;13.780;2022-12-18T07:14:30;15.23;;;4.90;;
75608;SDS011;64194;51.044;13.780;2022-12-18T07:18:32;14.60;;;5.82;;
75608;SDS011;64194;51.044;13.780;2022-12-18T07:22:33;16.00;;;6.13;;
75608;SDS011;64194;51.044;13.780;2022-12-18T07:26:35;12.95;;;5.43;;
75608;SDS011;64194;51.044;13.780;2022-12-18T07:30:37;17.73;;;6.35;;
75608;SDS011;64194;51.044;13.780;2022-12-18T07:34:39;13.30;;;6.30;;
75608;SDS011;64194;51.044;13.780;2022-12-18T07:38:41;20.95;;;7.68;;
75608;SDS011;64194;51.044;13.780;2022-12-18T07:42:43;16.42;;;6.68;;
75608;SDS011;64194;51.044;13.780;2022-12-18T07:46:44;20.95;;;8.30;;
75608;SDS011;64194;51.044;13.780;2022-12-18T07:50:46;16.75;;;6.97;;
75608;SDS011;64194;51.044;13.780;2022-12-18T07:54:48;13.35;;;5.68;;
75608;SDS011;64194;51.044;13.780;2022-12-18T07:58:51;17.45;;;6.43;;
75608;SDS011;64194;51.044;13.780;2022-12-18T08:02:52;20.65;;;7.80;;
75608;SDS011;64194;51.044;13.780;2022-12-18T08:06:54;16.50;;;7.05;;
75608;SDS011;64194;51.044;13.780;2022-12-18T08:10:56;15.00;;;7.20;;
75608;SDS011;64194;51.044;13.780;2022-12-18T08:14:58;20.08;;;8.48;;
75608;SDS011;64194;51.044;13.780;2022-12-18T08:18:59;20.25;;;9.57;;
75608;SDS011;64194;51.044;13.780;2022-12-18T08:23:01;20.58;;;10.18;;
75608;SDS011;64194;51.044;13.780;2022-12-18T08:27:03;21.23;;;9.60;;
75608;SDS011;64194;51.044;13.780;2022-12-18T08:31:25;22.67;;;10.68;;
75608;SDS011;64194;51.044;13.780;2022-12-18T08:35:27;22.67;;;11.80;;
75608;SDS011;64194;51.044;13.780;2022-12-18T08:39:36;20.40;;;11.23;;
75608;SDS011;64194;51.044;13.780;2022-12-18T08:43:38;20.20;;;11.15;;
75608;SDS011;64194;51.044;13.780;2022-12-18T08:47:58;24.08;;;11.80;;
75608;SDS011;64194;51.044;13.780;2022-12-18T08:52:00;22.85;;;11.88;;
75608;SDS011;64194;51.044;13.780;2022-12-18T08:56:02;22.40;;;11.85;;
75608;SDS011;64194;51.044;13.780;2022-12-18T09:00:04;19.98;;;12.18;;
75608;SDS011;64194;51.044;13.780;2022-12-18T09:04:07;22.67;;;12.18;;
75608;SDS011;64194;51.044;13.780;2022-12-18T09:08:09;21.30;;;11.25;;
75608;SDS011;64194;51.044;13.780;2022-12-18T09:12:11;25.17;;;13.07;;
75608;SDS011;64194;51.044;13.780;2022-12-18T09:16:12;24.80;;;12.05;;
75608;SDS011;64194;51.044;13.780;2022-12-18T09:20:14;22.38;;;13.00;;
75608;SDS011;64194;51.044;13.780;2022-12-18T09:24:17;27.98;;;13.70;;
75608;SDS011;64194;51.044;13.780;2022-12-18T09:28:18;21.48;;;12.32;;
75608;SDS011;64194;51.044;13.780;2022-12-18T09:32:20;27.20;;;14.05;;
75608;SDS011;64194;51.044;13.780;2022-12-18T09:36:23;26.50;;;13.88;;
75608;SDS011;64194;51.044;13.780;2022-12-18T09:40:25;25.02;;;13.32;;
75608;SDS011;64194;51.044;13.780;2022-12-18T09:44:29;24.27;;;12.70;;
75608;SDS011;64194;51.044;13.780;2022-12-18T09:48:46;25.73;;;12.13;;
75608;SDS011;64194;51.044;13.780;2022-12-18T09:52:53;22.75;;;11.70;;
75608;SDS011;64194;51.044;13.780;2022-12-18T10:00:59;21.98;;;11.32;;
75608;SDS011;64194;51.044;13.780;2022-12-18T10:05:09;29.25;;;13.30;;
75608;SDS011;64194;51.044;13.780;2022-12-18T10:09:25;23.90;;;12.07;;
75608;SDS011;64194;51.044;13.780;2022-12-18T10:22:19;27.55;;;12.77;;
75608;SDS011;64194;51.044;13.780;2022-12-18T10:26:29;24.90;;;11.27;;
75608;SDS011;64194;51.044;13.780;2022-12-18T10:30:33;24.48;;;12.90;;
75608;SDS011;64194;51.044;13.780;2022-12-18T10:34:34;22.98;;;10.95;;
75608;SDS011;64194;51.044;13.780;2022-12-18T10:38:36;25.02;;;11.88;;
75608;SDS011;64194;51.044;13.780;2022-12-18T10:42:39;24.52;;;11.90;;
75608;SDS011;64194;51.044;13.780;2022-12-18T10:46:45;22.70;;;12.32;;
75608;SDS011;64194;51.044;13.780;2022-12-18T10:50:49;24.17;;;11.93;;
75608;SDS011;64194;51.044;13.780;2022-12-18T10:55:15;26.85;;;13.10;;
75608;SDS011;64194;51.044;13.780;2022-12-18T10:59:17;23.95;;;13.45;;
75608;SDS011;64194;51.044;13.780;2022-12-18T11:03:28;25.20;;;13.27;;
75608;SDS011;64194;51.044;13.780;2022-12-18T11:07:46;24.92;;;13.68;;
75608;SDS011;64194;51.044;13.780;2022-12-18T11:11:58;24.85;;;12.68;;
75608;SDS011;64194;51.044;13.780;2022-12-18T11:16:05;25.25;;;12.38;;
75608;SDS011;64194;51.044;13.780;2022-12-18T11:20:19;24.77;;;13.45;;
75608;SDS011;64194;51.044;13.780;2022-12-18T11:24:34;23.85;;;11.63;;
75608;SDS011;64194;51.044;13.780;2022-12-18T11:28:38;24.65;;;12.82;;
75608;SDS011;64194;51.044;13.780;2022-12-18T11:32:43;25.95;;;12.38;;
75608;SDS011;64194;51.044;13.780;2022-12-18T11:37:05;26.33;;;13.07;;
75608;SDS011;64194;51.044;13.780;2022-12-18T11:45:20;22.27;;;12.35;;
75608;SDS011;64194;51.044;13.780;2022-12-18T11:49:27;26.23;;;12.27;;
75608;SDS011;64194;51.044;13.780;2022-12-18T11:53:34;28.23;;;12.80;;
75608;SDS011;64194;51.044;13.780;2022-12-18T11:57:41;25.52;;;11.82;;
75608;SDS011;64194;51.044;13.780;2022-12-18T12:01:54;23.92;;;11.38;;
75608;SDS011;64194;51.044;13.780;2022-12-18T12:06:18;27.27;;;12.35;;
75608;SDS011;64194;51.044;13.780;2022-12-18T12:10:31;24.70;;;12.13;;
75608;SDS011;64194;51.044;13.780;2022-12-18T12:32:03;22.63;;;11.27;;
75608;SDS011;64194;51.044;13.780;2022-12-18T12:40:32;22.88;;;11.90;;
75608;SDS011;64194;51.044;13.780;2022-12-18T12:44:57;23.95;;;11.32;;
75608;SDS011;64194;51.044;13.780;2022-12-18T12:49:02;24.75;;;12.70;;
75608;SDS011;64194;51.044;13.780;2022-12-18T12:53:06;21.45;;;10.43;;
75608;SDS011;64194;51.044;13.780;2022-12-18T12:57:13;24.27;;;11.45;;
75608;SDS011;64194;51.044;13.780;2022-12-18T13:01:25;24.38;;;12.20;;
75608;SDS011;64194;51.044;13.780;2022-12-18T13:14:35;26.33;;;12.10;;
75608;SDS011;64194;51.044;13.780;2022-12-18T13:18:40;26.38;;;11.52;;
75608;SDS011;64194;51.044;13.780;2022-12-18T13:22:51;23.38;;;11.18;;
75608;SDS011;64194;51.044;13.780;2022-12-18T13:26:53;28.00;;;12.02;;
75608;SDS011;64194;51.044;13.780;2022-12-18T13:30:56;27.25;;;12.10;;
75608;SDS011;64194;51.044;13.780;2022-12-18T13:43:39;22.73;;;10.45;;
75608;SDS011;64194;51.044;13.780;2022-12-18T13:47:45;25.58;;;10.52;;
75608;SDS011;64194;51.044;13.780;2022-12-18T13:51:47;20.95;;;10.00;;
75608;SDS011;64194;51.044;13.780;2022-12-18T13:55:51;20.80;;;10.45;;
75608;SDS011;64194;51.044;13.780;2022-12-18T13:59:53;18.90;;;8.85;;
75608;SDS011;64194;51.044;13.780;2022-12-18T14:04:10;19.05;;;7.72;;
75608;SDS011;64194;51.044;13.780;2022-12-18T14:08:20;20.02;;;9.00;;
75608;SDS011;64194;51.044;13.780;2022-12-18T14:12:24;18.88;;;8.30;;
75608;SDS011;64194;51.044;13.780;2022-12-18T14:16:48;15.85;;;7.18;;
75608;SDS011;64194;51.044;13.780;2022-12-18T14:20:51;25.00;;;8.57;;
75608;SDS011;64194;51.044;13.780;2022-12-18T14:25:13;23.60;;;8.48;;
75608;SDS011;64194;51.044;13.780;2022-12-18T14:33:27;20.85;;;8.07;;
75608;SDS011;64194;51.044;13.780;2022-12-18T14:37:29;18.27;;;7.68;;
75608;SDS011;64194;51.044;13.780;2022-12-18T14:41:31;23.23;;;9.38;;
75608;SDS011;64194;51.044;13.780;2022-12-18T14:45:38;26.27;;;8.35;;
75608;SDS011;64194;51.044;13.780;2022-12-18T14:49:47;24.25;;;9.40;;
75608;SDS011;64194;51.044;13.780;2022-12-18T14:53:59;17.48;;;7.07;;
75608;SDS011;64194;51.044;13.780;2022-12-18T14:58:10;21.35;;;7.90;;
75608;SDS011;64194;51.044;13.780;2022-12-18T15:06:29;16.60;;;6.75;;
75608;SDS011;64194;51.044;13.780;2022-12-18T15:10:45;21.58;;;8.63;;
75608;SDS011;64194;51.044;13.780;2022-12-18T15:14:48;29.30;;;10.35;;
75608;SDS011;64194;51.044;13.780;2022-12-18T15:18:51;22.50;;;8.35;;
75608;SDS011;64194;51.044;13.780;2022-12-18T15:22:54;17.63;;;7.78;;
75608;SDS011;64194;51.044;13.780;2022-12-18T15:26:56;24.73;;;8.38;;
75608;SDS011;64194;51.044;13.780;2022-12-18T15:31:43;24.75;;;9.07;;
75608;SDS011;64194;51.044;13.780;2022-12-18T15:35:26;18.23;;;7.60;;
75608;SDS011;64194;51.044;13.780;2022-12-18T15:39:27;23.83;;;8.52;;
75608;SDS011;64194;51.044;13.780;2022-12-18T15:43:29;19.40;;;9.30;;
75608;SDS011;64194;51.044;13.780;2022-12-18T15:47:35;17.67;;;6.53;;
75608;SDS011;64194;51.044;13.780;2022-12-18T15:51:36;11.43;;;4.38;;
75608;SDS011;64194;51.044;13.780;2022-12-18T15:55:39;20.08;;;10.15;;
75608;SDS011;64194;51.044;13.780;2022-12-18T16:00:01;14.27;;;6.15;;
75608;SDS011;64194;51.044;13.780;2022-12-18T16:04:05;24.88;;;9.07;;
75608;SDS011;64194;51.044;13.780;2022-12-18T16:08:07;18.35;;;6.13;;
75608;SDS011;64194;51.044;13.780;2022-12-18T16:12:19;23.17;;;8.77;;
75608;SDS011;64194;51.044;13.780;2022-12-18T16:16:23;22.67;;;8.32;;
75608;SDS011;64194;51.044;13.780;2022-12-18T16:20:25;16.92;;;6.95;;
75608;SDS011;64194;51.044;13.780;2022-12-18T16:24:28;21.00;;;8.23;;
75608;SDS011;64194;51.044;13.780;2022-12-18T16:28:31;22.48;;;10.10;;
75608;SDS011;64194;51.044;13.780;2022-12-18T16:32:32;12.98;;;5.47;;
75608;SDS011;64194;51.044;13.780;2022-12-18T16:36:34;18.58;;;6.78;;
75608;SDS011;64194;51.044;13.780;2022-12-18T16:40:35;22.60;;;8.95;;
75608;SDS011;64194;51.044;13.780;2022-12-18T16:44:59;20.60;;;8.43;;
75608;SDS011;64194;51.044;13.780;2022-12-18T16:49:00;26.75;;;9.63;;
75608;SDS011;64194;51.044;13.780;2022-12-18T16:53:02;16.90;;;6.68;;
75608;SDS011;64194;51.044;13.780;2022-12-18T16:57:04;18.48;;;6.45;;
75608;SDS011;64194;51.044;13.780;2022-12-18T17:01:09;29.15;;;8.07;;
75608;SDS011;64194;51.044;13.780;2022-12-18T17:05:12;29.30;;;9.13;;
75608;SDS011;64194;51.044;13.780;2022-12-18T17:09:14;23.05;;;10.20;;
75608;SDS011;64194;51.044;13.780;2022-12-18T17:13:25;21.92;;;9.20;;
75608;SDS011;64194;51.044;13.780;2022-12-18T17:17:27;30.23;;;10.40;;
75608;SDS011;64194;51.044;13.780;2022-12-18T17:21:29;21.85;;;8.13;;
75608;SDS011;64194;51.044;13.780;2022-12-18T17:25:31;13.10;;;5.97;;
75608;SDS011;64194;51.044;13.780;2022-12-18T17:29:33;20.00;;;7.93;;
75608;SDS011;64194;51.044;13.780;2022-12-18T17:33:34;20.63;;;8.73;;
75608;SDS011;64194;51.044;13.780;2022-12-18T17:37:40;24.73;;;8.23;;
75608;SDS011;64194;51.044;13.780;2022-12-18T17:41:41;22.55;;;8.35;;
75608;SDS011;64194;51.044;13.780;2022-12-18T17:45:43;16.35;;;6.63;;
75608;SDS011;64194;51.044;13.780;2022-12-18T17:49:45;15.43;;;7.15;;
75608;SDS011;64194;51.044;13.780;2022-12-18T17:53:47;25.33;;;10.02;;
75608;SDS011;64194;51.044;13.780;2022-12-18T17:57:49;21.25;;;8.85;;
75608;SDS011;64194;51.044;13.780;2022-12-18T18:01:51;21.90;;;8.70;;
75608;SDS011;64194;51.044;13.780;2022-12-18T18:05:56;18.17;;;7.22;;
75608;SDS011;64194;51.044;13.780;2022-12-18T18:10:02;19.80;;;5.38;;
75608;SDS011;64194;51.044;13.780;2022-12-18T18:14:06;22.20;;;8.50;;
75608;SDS011;64194;51.044;13.780;2022-12-18T18:18:12;24.58;;;9.23;;
75608;SDS011;64194;51.044;13.780;2022-12-18T18:22:15;19.90;;;8.35;;
75608;SDS011;64194;51.044;13.780;2022-12-18T18:26:18;22.30;;;8.07;;
75608;SDS011;64194;51.044;13.780;2022-12-18T18:30:20;16.05;;;6.28;;
75608;SDS011;64194;51.044;13.780;2022-12-18T18:34:24;22.05;;;7.90;;
75608;SDS011;64194;51.044;13.780;2022-12-18T18:38:28;19.67;;;8.43;;
75608;SDS011;64194;51.044;13.780;2022-12-18T18:42:30;18.08;;;7.25;;
75608;SDS011;64194;51.044;13.780;2022-12-18T18:46:31;21.38;;;7.90;;
75608;SDS011;64194;51.044;13.780;2022-12-18T18:50:33;19.05;;;7.00;;
75608;SDS011;64194;51.044;13.780;2022-12-18T18:54:35;21.55;;;6.88;;
75608;SDS011;64194;51.044;13.780;2022-12-18T18:58:37;19.83;;;7.40;;
75608;SDS011;64194;51.044;13.780;2022-12-18T19:02:38;18.45;;;7.72;;
75608;SDS011;64194;51.044;13.780;2022-12-18T19:06:41;25.00;;;8.50;;
75608;SDS011;64194;51.044;13.780;2022-12-18T19:10:43;23.60;;;8.52;;
